createdAt,value
2019-03-09T00:00:48.633Z,79.75
2019-03-09T00:03:18.940Z,79.99
2019-03-09T00:05:49.245Z,80.18
2019-03-09T00:08:19.529Z,80.14
2019-03-09T00:10:49.933Z,80.31
2019-03-09T00:13:20.006Z,80.56
2019-03-09T00:15:50.188Z,80.55
2019-03-09T00:18:20.535Z,80.76
2019-03-09T00:20:50.917Z,80.84
2019-03-09T00:23:33.729Z,80.84
2019-03-09T00:26:24.455Z,81.03
2019-03-09T00:29:03.305Z,81.09
2019-03-09T00:31:40.779Z,81.17
2019-03-09T00:34:10.841Z,81.30
2019-03-09T00:36:41.145Z,81.56
2019-03-09T00:39:11.803Z,81.65
2019-03-09T00:41:42.197Z,81.63
2019-03-09T00:44:12.532Z,81.73
2019-03-09T00:46:42.717Z,81.88
2019-03-09T00:49:12.790Z,81.91
2019-03-09T00:51:43.046Z,81.93
2019-03-09T00:54:15.122Z,82.05
2019-03-09T00:56:45.700Z,82.05
2019-03-09T00:59:15.979Z,82.14
2019-03-09T01:01:46.180Z,82.18
2019-03-09T01:04:16.344Z,82.17
2019-03-09T01:06:46.468Z,82.32
2019-03-09T01:09:16.820Z,82.39
2019-03-09T01:11:47.797Z,82.35
2019-03-09T01:14:17.890Z,82.38
2019-03-09T01:16:48.367Z,82.48
2019-03-09T01:19:18.533Z,82.38
2019-03-09T01:21:48.753Z,82.40
2019-03-09T01:24:19.035Z,82.53
2019-03-09T01:26:49.331Z,82.74
2019-03-09T01:29:19.785Z,82.94
2019-03-09T01:31:50.053Z,82.92
2019-03-09T01:34:20.280Z,82.98
2019-03-09T01:36:50.569Z,83.11
2019-03-09T01:39:20.723Z,83.11
2019-03-09T01:41:51.303Z,83.21
2019-03-09T01:44:21.453Z,83.29
2019-03-09T01:46:51.648Z,83.29
2019-03-09T01:49:21.739Z,83.44
2019-03-09T01:51:52.190Z,83.43
2019-03-09T01:54:22.504Z,83.57
2019-03-09T01:56:52.927Z,83.89
2019-03-09T01:59:23.185Z,84.09
2019-03-09T02:01:53.403Z,84.13
2019-03-09T02:04:23.447Z,84.29
2019-03-09T02:06:53.876Z,84.29
2019-03-09T02:09:24.490Z,84.30
2019-03-09T02:11:54.929Z,84.38
2019-03-09T02:14:25.402Z,84.51
2019-03-09T02:16:55.693Z,84.67
2019-03-09T02:19:26.210Z,84.70
2019-03-09T02:21:56.571Z,84.68
2019-03-09T02:24:26.902Z,84.86
2019-03-09T02:26:57.183Z,84.95
2019-03-09T02:29:27.406Z,85.18
2019-03-09T02:31:57.613Z,85.46
2019-03-09T02:34:27.828Z,85.53
2019-03-09T02:36:58.092Z,85.43
2019-03-09T02:39:36.346Z,85.56
2019-03-09T02:42:06.781Z,85.83
2019-03-09T02:44:37.205Z,85.80
2019-03-09T02:47:07.420Z,85.81
2019-03-09T02:49:37.743Z,85.90
2019-03-09T02:52:08.367Z,86.13
2019-03-09T02:54:38.691Z,86.16
2019-03-09T02:57:08.971Z,86.04
2019-03-09T02:59:39.407Z,86.08
2019-03-09T03:02:25.788Z,86.22
2019-03-09T03:04:56.197Z,86.13
2019-03-09T03:07:26.361Z,86.07
2019-03-09T03:09:56.843Z,86.01
2019-03-09T03:12:26.971Z,85.92
2019-03-09T03:14:57.233Z,86.27
2019-03-09T03:17:27.784Z,86.38
2019-03-09T03:19:57.946Z,86.56
2019-03-09T03:22:28.350Z,86.88
2019-03-09T03:24:58.681Z,86.89
2019-03-09T03:27:29.155Z,86.85
2019-03-09T03:29:59.345Z,86.82
2019-03-09T03:32:33.636Z,86.65
2019-03-09T03:35:04.321Z,86.63
2019-03-09T03:37:34.578Z,86.37
2019-03-09T03:40:05.862Z,85.97
2019-03-09T03:42:36.249Z,85.78
2019-03-09T03:45:07.390Z,85.65
2019-03-09T03:47:37.677Z,85.43
2019-03-09T03:50:07.960Z,85.30
2019-03-09T03:52:38.335Z,85.04
2019-03-09T03:55:08.828Z,84.83
2019-03-09T03:57:38.909Z,84.61
2019-03-09T04:00:10.998Z,84.34
2019-03-09T04:02:41.487Z,84.08
2019-03-09T04:05:11.685Z,83.82
2019-03-09T04:07:42.151Z,83.65
2019-03-09T04:10:12.877Z,83.51
2019-03-09T04:12:43.748Z,83.31
2019-03-09T04:15:14.619Z,83.30
2019-03-09T04:17:45.160Z,83.22
2019-03-09T04:20:15.630Z,83.08
2019-03-09T04:22:45.849Z,83.01
2019-03-09T04:25:16.219Z,82.97
2019-03-09T04:27:46.476Z,83.01
2019-03-09T04:30:16.772Z,82.93
2019-03-09T04:32:52.536Z,82.80
2019-03-09T04:35:30.076Z,82.72
2019-03-09T04:38:00.357Z,82.59
2019-03-09T04:40:30.524Z,82.52
2019-03-09T04:43:00.780Z,82.34
2019-03-09T04:45:31.003Z,82.10
2019-03-09T04:48:01.233Z,81.92
2019-03-09T04:50:31.632Z,81.79
2019-03-09T04:53:02.179Z,81.73
2019-03-09T04:55:32.539Z,81.73
2019-03-09T04:58:03.002Z,81.71
2019-03-09T05:00:35.075Z,81.70
2019-03-09T05:03:05.366Z,81.68
2019-03-09T05:05:35.652Z,81.55
2019-03-09T05:08:12.790Z,81.40
2019-03-09T05:11:00.295Z,81.28
2019-03-09T05:14:02.609Z,81.30
2019-03-09T05:16:32.832Z,81.33
2019-03-09T05:19:03.137Z,81.23
2019-03-09T05:21:33.342Z,81.08
2019-03-09T05:24:03.593Z,80.99
2019-03-09T05:26:36.643Z,80.96
2019-03-09T05:29:06.938Z,80.95
2019-03-09T05:31:40.120Z,80.96
2019-03-09T05:34:10.346Z,80.90
2019-03-09T05:36:41.708Z,80.84
2019-03-09T05:39:12.021Z,80.63
2019-03-09T05:41:42.402Z,80.50
2019-03-09T05:44:12.539Z,80.37
2019-03-09T05:46:42.725Z,80.30
2019-03-09T05:49:12.988Z,80.25
2019-03-09T05:51:43.211Z,80.19
2019-03-09T05:54:13.308Z,80.21
2019-03-09T05:56:43.960Z,80.08
2019-03-09T05:59:14.494Z,79.08
2019-03-09T06:01:45.184Z,78.98
2019-03-09T06:04:15.950Z,78.81
2019-03-09T06:06:46.578Z,78.67
2019-03-09T06:09:17.089Z,78.46
2019-03-09T06:11:47.601Z,78.36
2019-03-09T06:14:18.031Z,78.21
2019-03-09T06:16:48.391Z,78.15
2019-03-09T06:19:18.881Z,77.99
2019-03-09T06:21:49.427Z,77.90
2019-03-09T06:24:20.034Z,77.88
2019-03-09T06:26:50.679Z,77.87
2019-03-09T06:29:22.256Z,77.83
2019-03-09T06:32:46.914Z,77.89
2019-03-09T06:35:17.459Z,77.75
2019-03-09T06:37:55.851Z,77.56
2019-03-09T06:40:26.333Z,77.38
2019-03-09T06:42:56.745Z,77.25
2019-03-09T06:45:27.153Z,77.16
2019-03-09T06:47:57.603Z,77.17
2019-03-09T06:50:28.014Z,77.16
2019-03-09T06:52:58.618Z,77.00
2019-03-09T06:55:31.626Z,76.65
2019-03-09T06:58:02.067Z,76.49
2019-03-09T07:00:36.173Z,76.51
2019-03-09T07:03:07.854Z,76.46
2019-03-09T07:05:38.045Z,76.36
2019-03-09T07:08:08.247Z,76.23
2019-03-09T07:10:40.667Z,75.98
2019-03-09T07:13:11.037Z,75.87
2019-03-09T07:15:44.014Z,75.84
2019-03-09T07:18:32.921Z,75.54
2019-03-09T07:21:03.111Z,75.05
2019-03-09T07:23:33.378Z,74.51
2019-03-09T07:26:03.611Z,74.19
2019-03-09T07:28:33.753Z,74.31
2019-03-09T07:31:04.044Z,74.24
2019-03-09T07:33:34.275Z,74.25
2019-03-09T07:36:04.633Z,74.23
2019-03-09T07:38:34.929Z,74.38
2019-03-09T07:41:05.185Z,74.48
2019-03-09T07:43:35.272Z,74.53
2019-03-09T07:46:05.531Z,74.45
2019-03-09T07:48:35.778Z,74.40
2019-03-09T07:51:06.758Z,73.99
2019-03-09T07:53:37.072Z,73.86
2019-03-09T07:56:07.293Z,73.71
2019-03-09T07:58:37.548Z,73.39
2019-03-09T08:01:08.958Z,73.14
2019-03-09T08:03:41.937Z,73.10
2019-03-09T08:06:12.328Z,72.92
2019-03-09T08:08:42.420Z,72.62
2019-03-09T08:11:12.700Z,72.56
2019-03-09T08:13:43.120Z,72.20
2019-03-09T08:16:13.455Z,72.24
2019-03-09T08:18:45.270Z,71.83
2019-03-09T08:21:15.591Z,71.69
2019-03-09T08:23:45.812Z,71.78
2019-03-09T08:26:16.363Z,71.47
2019-03-09T08:28:46.523Z,71.21
2019-03-09T08:31:16.702Z,70.84
2019-03-09T08:33:46.962Z,70.34
2019-03-09T08:36:17.310Z,70.28
2019-03-09T08:38:47.432Z,70.18
2019-03-09T08:41:17.607Z,70.25
2019-03-09T08:43:47.855Z,70.14
2019-03-09T08:46:18.126Z,69.92
2019-03-09T08:48:48.365Z,69.86
2019-03-09T08:51:18.659Z,69.87
2019-03-09T08:53:48.759Z,69.92
2019-03-09T08:56:19.006Z,69.77
2019-03-09T08:58:49.170Z,69.73
2019-03-09T09:01:19.372Z,69.56
2019-03-09T09:03:49.614Z,69.35
2019-03-09T09:06:29.236Z,69.00
2019-03-09T09:08:59.589Z,68.12
2019-03-09T09:11:30.378Z,67.75
2019-03-09T09:16:29.411Z,67.13
2019-03-09T09:19:01.456Z,66.37
2019-03-09T09:21:33.888Z,66.43
2019-03-09T09:24:04.241Z,66.46
2019-03-09T09:26:34.737Z,66.05
2019-03-09T09:29:05.092Z,65.78
2019-03-09T09:31:35.360Z,64.87
2019-03-09T09:34:05.757Z,64.82
2019-03-09T09:36:36.636Z,64.47
2019-03-09T09:39:09.271Z,64.20
2019-03-09T09:41:39.526Z,64.16
2019-03-09T09:44:09.842Z,64.39
2019-03-09T09:46:40.038Z,63.91
2019-03-09T09:49:10.191Z,63.84
2019-03-09T09:51:40.445Z,63.64
2019-03-09T09:54:10.816Z,63.10
2019-03-09T09:56:41.004Z,62.87
2019-03-09T09:59:11.239Z,62.91
2019-03-09T10:01:41.498Z,63.14
2019-03-09T10:04:11.694Z,63.13
2019-03-09T10:06:41.919Z,63.29
2019-03-09T10:09:16.609Z,63.26
2019-03-09T10:11:46.995Z,62.94
2019-03-09T10:14:17.236Z,63.04
2019-03-09T10:16:50.060Z,62.38
2019-03-09T10:19:20.347Z,62.08
2019-03-09T10:21:50.589Z,61.74
2019-03-09T10:24:20.704Z,61.68
2019-03-09T10:26:50.885Z,61.60
2019-03-09T10:29:21.128Z,62.07
2019-03-09T10:31:51.306Z,62.16
2019-03-09T10:34:21.450Z,61.87
2019-03-09T10:36:51.802Z,61.56
2019-03-09T10:39:22.486Z,61.67
2019-03-09T10:41:52.636Z,61.64
2019-03-09T10:44:22.844Z,61.36
2019-03-09T10:46:53.172Z,61.01
2019-03-09T10:49:23.385Z,60.44
2019-03-09T10:51:53.561Z,59.83
2019-03-09T10:54:23.807Z,59.72
2019-03-09T10:56:54.038Z,59.46
2019-03-09T10:59:24.296Z,58.46
2019-03-09T11:01:54.545Z,58.78
2019-03-09T11:04:27.839Z,58.33
2019-03-09T11:06:56.683Z,58.35
2019-03-09T11:09:26.909Z,58.35
2019-03-09T11:11:57.133Z,57.50
2019-03-09T11:14:27.263Z,57.69
2019-03-09T11:16:57.639Z,57.88
2019-03-09T11:19:28.309Z,57.76
2019-03-09T11:21:58.486Z,57.95
2019-03-09T11:24:28.736Z,58.09
2019-03-09T11:26:58.853Z,58.14
2019-03-09T11:29:29.065Z,58.40
2019-03-09T11:31:59.324Z,58.37
2019-03-09T11:34:29.628Z,58.00
2019-03-09T11:36:59.887Z,57.83
2019-03-09T11:39:30.187Z,57.20
2019-03-09T11:42:00.436Z,56.45
2019-03-09T11:44:30.617Z,55.95
2019-03-09T11:47:01.035Z,55.40
2019-03-09T11:49:31.232Z,55.40
2019-03-09T11:52:01.462Z,55.47
2019-03-09T11:54:31.772Z,54.76
2019-03-09T11:57:02.083Z,54.78
2019-03-09T11:59:32.615Z,54.53
2019-03-09T12:02:02.932Z,54.48
2019-03-09T12:04:33.078Z,54.53
2019-03-09T12:07:03.377Z,54.76
2019-03-09T12:09:33.679Z,55.04
2019-03-09T12:12:04.947Z,55.20
2019-03-09T12:14:35.223Z,55.15
2019-03-09T12:17:12.762Z,55.29
2019-03-09T12:19:37.493Z,55.21
2019-03-09T12:22:07.662Z,55.22
2019-03-09T12:24:37.977Z,55.17
2019-03-09T12:27:08.407Z,55.79
2019-03-09T12:29:38.688Z,56.50
2019-03-09T12:32:09.033Z,57.11
2019-03-09T12:34:39.322Z,57.74
2019-03-09T12:37:09.535Z,58.14
2019-03-09T12:39:39.775Z,58.83
2019-03-09T12:42:09.990Z,59.39
2019-03-09T12:44:40.308Z,59.53
2019-03-09T12:47:10.576Z,59.42
2019-03-09T12:49:40.841Z,58.98
2019-03-09T12:52:11.100Z,58.17
2019-03-09T12:54:41.359Z,57.98
2019-03-09T12:57:11.488Z,57.94
2019-03-09T12:59:43.816Z,57.84
2019-03-09T13:02:14.117Z,58.03
2019-03-09T13:04:44.329Z,58.21
2019-03-09T13:07:14.655Z,58.12
2019-03-09T13:09:44.721Z,58.37
2019-03-09T13:12:14.971Z,58.37
2019-03-09T13:14:45.180Z,58.65
2019-03-09T13:17:15.463Z,58.61
2019-03-09T13:19:45.609Z,58.65
2019-03-09T13:22:15.893Z,58.75
2019-03-09T13:24:46.266Z,59.04
2019-03-09T13:27:16.429Z,59.38
2019-03-09T13:29:46.696Z,59.68
2019-03-09T13:32:16.928Z,60.12
2019-03-09T13:34:49.193Z,61.30
2019-03-09T13:37:19.184Z,63.71
2019-03-09T13:39:49.478Z,67.03
2019-03-09T13:42:19.690Z,69.54
2019-03-09T13:44:51.835Z,71.36
2019-03-09T13:47:21.926Z,72.71
2019-03-09T13:49:52.208Z,73.91
2019-03-09T13:52:22.332Z,75.68
2019-03-09T13:54:52.628Z,76.04
2019-03-09T13:57:22.881Z,76.59
2019-03-09T13:59:53.140Z,76.49
2019-03-09T14:02:23.385Z,77.14
2019-03-09T14:04:53.782Z,77.33
2019-03-09T14:07:24.051Z,77.50
2019-03-09T14:09:54.250Z,77.96
2019-03-09T14:12:24.541Z,78.38
2019-03-09T14:14:59.288Z,78.80
2019-03-09T14:17:30.758Z,79.44
2019-03-09T14:20:01.045Z,80.00
2019-03-09T14:22:31.410Z,80.30
2019-03-09T14:25:02.635Z,80.53
2019-03-09T14:27:32.866Z,80.57
2019-03-09T14:30:03.251Z,80.51
2019-03-09T14:32:34.387Z,80.79
2019-03-09T14:35:05.251Z,80.88
2019-03-09T14:37:35.546Z,80.85
2019-03-09T14:40:07.908Z,81.03
2019-03-09T14:42:38.929Z,81.08
2019-03-09T14:45:13.875Z,80.88
2019-03-09T14:47:44.214Z,80.80
2019-03-09T14:50:16.123Z,80.70
2019-03-09T14:52:46.419Z,80.02
2019-03-09T14:55:16.734Z,79.53
2019-03-09T14:57:47.061Z,79.41
2019-03-09T15:00:22.336Z,79.43
2019-03-09T15:02:52.830Z,79.39
2019-03-09T15:05:23.316Z,79.23
2019-03-09T15:07:53.503Z,79.02
2019-03-09T15:10:23.687Z,78.87
2019-03-09T15:12:53.959Z,78.64
2019-03-09T15:15:24.234Z,78.09
2019-03-09T15:17:54.862Z,77.69
2019-03-09T15:20:25.295Z,77.21
2019-03-09T15:22:55.640Z,77.14
2019-03-09T15:25:25.821Z,76.15
2019-03-09T15:27:56.135Z,76.02
2019-03-09T15:30:26.270Z,76.73
2019-03-09T15:32:56.544Z,76.98
2019-03-09T15:35:26.741Z,76.90
2019-03-09T15:37:56.951Z,76.20
2019-03-09T15:40:27.407Z,75.70
2019-03-09T15:42:57.665Z,75.32
2019-03-09T15:45:27.941Z,75.51
2019-03-09T15:48:00.749Z,75.60
2019-03-09T15:50:30.998Z,75.52
2019-03-09T15:53:02.903Z,75.05
2019-03-09T15:55:33.314Z,74.86
2019-03-09T15:58:03.655Z,74.88
2019-03-09T16:00:33.964Z,74.67
2019-03-09T16:03:04.391Z,74.28
2019-03-09T16:05:34.705Z,73.62
2019-03-09T16:08:05.045Z,72.92
2019-03-09T16:10:35.452Z,72.51
2019-03-09T16:13:06.969Z,72.22
2019-03-09T16:15:37.160Z,72.31
2019-03-09T16:18:07.417Z,71.27
2019-03-09T16:20:37.753Z,70.68
2019-03-09T16:23:08.072Z,70.52
2019-03-09T16:25:38.331Z,70.71
2019-03-09T16:28:08.585Z,71.44
2019-03-09T16:30:38.708Z,72.31
2019-03-09T16:33:09.114Z,72.93
2019-03-09T16:35:40.812Z,73.41
2019-03-09T16:38:11.201Z,73.91
2019-03-09T16:40:41.599Z,74.35
2019-03-09T16:43:12.009Z,74.61
2019-03-09T16:45:42.283Z,74.79
2019-03-09T16:48:12.659Z,74.84
2019-03-09T16:50:43.033Z,75.02
2019-03-09T16:53:13.277Z,75.37
2019-03-09T16:55:43.569Z,75.68
2019-03-09T16:58:13.809Z,75.73
2019-03-09T17:00:43.974Z,75.86
2019-03-09T17:03:14.122Z,76.03
2019-03-09T17:05:44.574Z,76.10
2019-03-09T17:08:22.427Z,76.15
2019-03-09T17:10:52.761Z,76.30
2019-03-09T17:13:23.124Z,76.37
2019-03-09T17:15:53.352Z,76.67
2019-03-09T17:18:23.582Z,76.80
2019-03-09T17:20:56.793Z,76.82
2019-03-09T17:23:27.244Z,76.81
2019-03-09T17:25:57.881Z,76.96
2019-03-09T17:28:28.107Z,77.02
2019-03-09T17:30:58.315Z,77.02
2019-03-09T17:33:28.478Z,77.07
2019-03-09T17:35:58.653Z,77.11
2019-03-09T17:38:28.864Z,77.20
2019-03-09T17:41:01.424Z,77.36
2019-03-09T17:43:31.525Z,77.54
2019-03-09T17:46:01.679Z,77.50
2019-03-09T17:48:32.231Z,77.71
2019-03-09T17:51:02.350Z,77.76
2019-03-09T17:53:32.414Z,77.99
2019-03-09T17:56:02.641Z,78.19
2019-03-09T17:58:32.804Z,78.19
2019-03-09T18:01:02.854Z,78.32
2019-03-09T18:03:33.148Z,78.45
2019-03-09T18:06:03.480Z,78.51
2019-03-09T18:08:33.630Z,78.62
2019-03-09T18:11:06.705Z,78.62
2019-03-09T18:13:36.884Z,78.68
2019-03-09T18:16:07.170Z,78.68
2019-03-09T18:18:37.453Z,78.77
2019-03-09T18:21:08.092Z,78.82
2019-03-09T18:23:38.348Z,78.70
2019-03-09T18:26:08.547Z,78.72
2019-03-09T18:28:38.774Z,78.74
2019-03-09T18:31:08.888Z,78.80
2019-03-09T18:33:39.080Z,78.87
2019-03-09T18:36:09.256Z,78.95
2019-03-09T18:38:39.370Z,79.08
2019-03-09T18:41:09.519Z,79.28
2019-03-09T18:43:39.731Z,79.29
2019-03-09T18:46:09.950Z,79.28
2019-03-09T18:48:40.140Z,79.34
2019-03-09T18:51:10.345Z,79.28
2019-03-09T18:53:40.441Z,79.47
2019-03-09T18:56:10.657Z,79.62
2019-03-09T18:58:41.143Z,79.71
2019-03-09T19:01:11.628Z,79.84
2019-03-09T19:03:42.629Z,79.84
2019-03-09T19:06:13.204Z,79.84
2019-03-09T19:08:43.702Z,79.89
2019-03-09T19:11:14.632Z,80.08
2019-03-09T19:13:45.305Z,80.19
2019-03-09T19:16:15.768Z,80.11
2019-03-09T19:21:31.372Z,80.03
2019-03-09T19:24:01.499Z,80.12
2019-03-09T19:26:31.721Z,80.17
2019-03-09T19:29:01.991Z,80.17
2019-03-09T19:31:32.501Z,80.21
2019-03-09T19:34:03.043Z,80.20
2019-03-09T19:36:33.576Z,80.32
2019-03-09T19:39:04.784Z,80.44
2019-03-09T19:41:35.508Z,80.36
2019-03-09T19:44:07.194Z,80.35
2019-03-09T19:46:37.650Z,80.34
2019-03-09T19:49:08.073Z,80.38
2019-03-09T19:51:38.495Z,80.40
2019-03-09T19:54:08.997Z,80.47
2019-03-09T19:56:39.448Z,80.60
2019-03-09T19:59:09.854Z,80.65
2019-03-09T20:01:40.289Z,80.58
2019-03-09T20:04:10.660Z,80.56
2019-03-09T20:06:42.055Z,80.79
2019-03-09T20:09:12.596Z,80.83
2019-03-09T20:11:42.962Z,80.77
2019-03-09T20:14:13.380Z,80.87
2019-03-09T20:16:44.284Z,80.86
2019-03-09T20:19:14.813Z,80.84
2019-03-09T20:21:45.992Z,80.85
2019-03-09T20:24:16.750Z,80.94
2019-03-09T20:26:50.241Z,80.99
2019-03-09T20:29:20.600Z,80.89
2019-03-09T20:31:51.129Z,80.99
2019-03-09T20:34:21.572Z,81.10
2019-03-09T20:36:52.103Z,81.02
2019-03-09T20:39:22.650Z,81.10
2019-03-09T20:41:53.158Z,81.19
2019-03-09T20:44:25.836Z,81.26
2019-03-09T20:46:56.479Z,81.21
2019-03-09T20:49:27.746Z,81.14
2019-03-09T20:51:58.660Z,81.41
2019-03-09T20:54:29.205Z,81.42
2019-03-09T20:56:59.830Z,81.30
2019-03-09T20:59:30.414Z,81.49
2019-03-09T21:02:00.979Z,81.60
2019-03-09T21:04:31.376Z,81.60
2019-03-09T21:07:01.832Z,81.58
2019-03-09T21:09:32.743Z,81.64
2019-03-09T21:12:03.992Z,81.90
2019-03-09T21:14:34.465Z,81.90
2019-03-09T21:17:05.164Z,81.96
2019-03-09T21:19:35.634Z,81.91
2019-03-09T21:22:07.360Z,81.97
2019-03-09T21:24:37.901Z,82.15
2019-03-09T21:27:08.838Z,82.36
2019-03-09T21:32:08.496Z,82.52
2019-03-09T21:34:38.879Z,82.70
2019-03-09T21:37:09.570Z,82.77
2019-03-09T21:39:40.369Z,82.77
2019-03-09T21:42:10.909Z,83.01
2019-03-09T21:44:41.435Z,82.85
2019-03-09T21:47:11.929Z,82.98
2019-03-09T21:49:42.774Z,83.06
2019-03-09T21:52:13.397Z,83.04
2019-03-09T21:54:44.566Z,83.01
2019-03-09T21:57:15.891Z,83.00
2019-03-09T21:59:46.536Z,82.99
2019-03-09T22:02:16.999Z,83.05
2019-03-09T22:04:47.553Z,83.12
2019-03-09T22:07:17.839Z,83.14
2019-03-09T22:09:47.973Z,83.19
2019-03-09T22:12:18.055Z,83.15
2019-03-09T22:14:48.368Z,83.12
2019-03-09T22:17:18.695Z,83.09
2019-03-09T22:19:48.889Z,83.01
2019-03-09T22:22:19.073Z,83.01
2019-03-09T22:24:49.271Z,82.99
2019-03-09T22:27:19.494Z,82.92
2019-03-09T22:29:49.829Z,82.83
2019-03-09T22:32:20.049Z,82.78
2019-03-09T22:34:50.162Z,82.67
2019-03-09T22:37:20.416Z,82.55
2019-03-09T22:39:50.569Z,82.56
2019-03-09T22:42:20.758Z,82.45
2019-03-09T22:44:50.945Z,82.43
2019-03-09T22:47:21.225Z,82.38
2019-03-09T22:49:51.514Z,82.34
2019-03-09T22:52:21.661Z,82.42
2019-03-09T22:54:51.814Z,82.32
2019-03-09T22:57:22.050Z,82.23
2019-03-09T22:59:52.478Z,82.13
2019-03-09T23:02:22.721Z,82.08
2019-03-09T23:04:53.033Z,82.05
2019-03-09T23:07:23.338Z,81.89
2019-03-09T23:09:53.513Z,81.79
2019-03-09T23:12:23.680Z,81.65
2019-03-09T23:14:53.881Z,81.54
2019-03-09T23:17:24.080Z,81.43
2019-03-09T23:19:54.220Z,81.25
2019-03-09T23:22:24.359Z,81.05
2019-03-09T23:24:54.545Z,80.92
2019-03-09T23:27:24.662Z,80.75
2019-03-09T23:29:54.862Z,80.57
2019-03-09T23:32:25.068Z,80.37
2019-03-09T23:34:55.282Z,80.26
2019-03-09T23:37:25.407Z,80.22
2019-03-09T23:39:55.600Z,80.14
2019-03-09T23:42:25.672Z,80.08
2019-03-09T23:44:55.795Z,80.04
2019-03-09T23:47:25.946Z,80.03
2019-03-09T23:49:56.175Z,80.00
2019-03-09T23:52:26.327Z,79.94
2019-03-09T23:54:58.014Z,79.94
2019-03-09T23:57:28.211Z,79.90
2019-03-09T23:59:58.431Z,79.93
